Time;durP1;ratioP1;P1;durP2;ratioP2;P2;SDS_P1;SDS_P2;PMS_P1;PMS_P2;Temp;Humidity;BMP_temperature;BMP_pressure;BME280_temperature;BME280_humidity;BME280_pressure;Samples;Min_cycle;Max_cycle;Signal;HPM_P1;HPM_P2
2023/06/30 00:02:08;;;;;;;4.72;2.85;;;15.80;99.90;;;;;;4976505;28;20372;-73
2023/06/30 00:04:35;;;;;;;4.68;2.47;;;15.80;99.90;;;;;;4974902;28;20047;-74
2023/06/30 00:07:01;;;;;;;3.72;2.33;;;15.70;99.90;;;;;;4976384;28;20094;-74
2023/06/30 00:09:27;;;;;;;6.18;2.67;;;15.70;99.90;;;;;;4976387;28;20058;-74
2023/06/30 00:11:54;;;;;;;6.40;2.85;;;15.70;99.90;;;;;;4976033;28;20116;-75
2023/06/30 00:14:21;;;;;;;5.40;2.63;;;15.60;99.90;;;;;;4975745;28;20514;-74
2023/06/30 00:16:47;;;;;;;5.70;2.63;;;15.60;99.90;;;;;;4974788;28;20062;-73
2023/06/30 00:19:13;;;;;;;3.92;2.17;;;15.60;99.90;;;;;;4975707;28;20046;-73
2023/06/30 00:21:43;;;;;;;6.57;2.40;;;15.50;99.90;;;;;;4975620;28;20043;-74
2023/06/30 00:24:15;;;;;;;4.50;2.50;;;15.50;99.90;;;;;;4975593;28;20129;-74
2023/06/30 00:26:41;;;;;;;9.70;3.17;;;15.50;99.90;;;;;;4976111;28;20038;-73
2023/06/30 00:29:07;;;;;;;5.43;2.63;;;15.40;99.90;;;;;;4975983;28;20499;-75
2023/06/30 00:31:34;;;;;;;5.28;2.40;;;15.40;99.90;;;;;;4975890;28;20058;-74
2023/06/30 00:33:59;;;;;;;3.95;2.80;;;15.40;99.90;;;;;;4975285;28;20539;-74
2023/06/30 00:36:25;;;;;;;5.85;2.40;;;15.40;99.90;;;;;;4974931;28;20105;-75
2023/06/30 00:38:51;;;;;;;4.07;2.10;;;15.40;99.90;;;;;;4976069;28;20429;-75
2023/06/30 00:41:18;;;;;;;7.60;2.65;;;15.40;99.90;;;;;;4975296;28;20049;-74
2023/06/30 00:43:44;;;;;;;5.65;2.10;;;15.40;99.90;;;;;;4975254;28;20086;-74
2023/06/30 00:46:12;;;;;;;5.05;2.00;;;15.40;99.90;;;;;;4975230;28;20116;-75
2023/06/30 00:48:39;;;;;;;5.30;2.20;;;15.40;99.90;;;;;;4975027;28;20039;-75
2023/06/30 00:51:05;;;;;;;5.32;2.10;;;15.30;99.90;;;;;;4974567;28;20488;-75
2023/06/30 00:53:31;;;;;;;5.57;1.95;;;15.30;99.90;;;;;;4975103;28;20082;-75
2023/06/30 00:55:57;;;;;;;3.78;1.85;;;15.30;99.90;;;;;;4975553;28;20046;-74
2023/06/30 00:58:23;;;;;;;7.50;2.15;;;15.30;99.90;;;;;;4975070;28;20046;-75
2023/06/30 01:00:54;;;;;;;3.30;1.75;;;15.30;99.90;;;;;;4975229;28;20066;-74
2023/06/30 01:03:32;;;;;;;4.05;2.13;;;15.30;99.90;;;;;;4975485;28;20066;-74
2023/06/30 01:06:07;;;;;;;7.15;2.13;;;15.30;99.90;;;;;;4975567;28;20132;-75
2023/06/30 01:08:38;;;;;;;4.95;2.00;;;15.20;99.90;;;;;;4974968;28;20129;-74
2023/06/30 01:11:04;;;;;;;5.60;2.33;;;15.20;99.90;;;;;;4974869;28;20042;-74
2023/06/30 01:13:32;;;;;;;3.85;1.90;;;15.20;99.90;;;;;;4957980;28;20051;-75
2023/06/30 01:15:58;;;;;;;5.32;1.95;;;15.10;99.90;;;;;;4974785;28;20055;-75
2023/06/30 01:18:26;;;;;;;4.40;2.00;;;15.10;99.90;;;;;;4974838;28;20043;-75
2023/06/30 01:20:53;;;;;;;6.65;2.30;;;15.00;99.90;;;;;;4974827;28;20039;-75
2023/06/30 01:23:33;;;;;;;3.85;1.98;;;14.90;99.90;;;;;;4974758;28;20054;-74
2023/06/30 01:26:01;;;;;;;8.52;3.10;;;14.80;99.90;;;;;;4975419;28;20047;-75
2023/06/30 01:28:27;;;;;;;5.90;2.20;;;14.80;99.90;;;;;;4976035;28;20086;-74
2023/06/30 01:30:55;;;;;;;6.13;2.20;;;14.70;99.90;;;;;;4977002;28;20403;-75
2023/06/30 01:33:23;;;;;;;6.57;2.20;;;14.60;99.90;;;;;;4975606;28;20051;-74
2023/06/30 01:35:49;;;;;;;4.80;2.00;;;14.50;99.90;;;;;;4974849;28;20067;-74
2023/06/30 01:38:15;;;;;;;5.55;1.90;;;14.50;99.90;;;;;;4974611;28;20103;-75
2023/06/30 01:40:41;;;;;;;4.38;1.88;;;14.40;99.90;;;;;;4975123;28;20053;-74
2023/06/30 01:43:06;;;;;;;6.00;2.50;;;14.30;99.90;;;;;;4974595;28;20047;-74
2023/06/30 01:45:33;;;;;;;4.03;2.20;;;14.20;99.90;;;;;;4974581;28;20057;-74
2023/06/30 01:47:59;;;;;;;3.88;1.90;;;14.20;99.90;;;;;;4974334;28;20471;-74
2023/06/30 01:50:31;;;;;;;4.40;1.73;;;14.20;99.90;;;;;;4977387;28;20615;-74
2023/06/30 01:52:58;;;;;;;3.53;1.95;;;14.20;99.90;;;;;;4979148;28;20416;-75
2023/06/30 01:55:23;;;;;;;4.25;1.80;;;14.10;99.90;;;;;;4978346;28;20050;-74
2023/06/30 01:57:49;;;;;;;5.07;1.85;;;14.10;99.90;;;;;;4978217;28;20047;-74
2023/06/30 02:00:15;;;;;;;3.45;1.73;;;14.10;99.90;;;;;;4978281;28;20511;-74
2023/06/30 02:02:41;;;;;;;3.22;2.35;;;14.00;99.90;;;;;;4978664;28;20049;-74
2023/06/30 02:05:08;;;;;;;5.15;1.90;;;14.00;99.90;;;;;;4978146;28;20056;-75
2023/06/30 02:07:33;;;;;;;4.50;1.90;;;13.90;99.90;;;;;;4976912;28;20061;-74
2023/06/30 02:09:59;;;;;;;6.40;2.20;;;13.80;99.90;;;;;;4978010;28;20476;-74
2023/06/30 02:12:25;;;;;;;5.90;2.38;;;13.80;99.90;;;;;;4978453;28;20039;-74
2023/06/30 02:14:50;;;;;;;4.22;2.13;;;13.70;99.90;;;;;;4976827;28;20391;-75
2023/06/30 02:17:16;;;;;;;4.90;2.20;;;13.70;99.90;;;;;;4978195;28;20125;-74
2023/06/30 02:19:42;;;;;;;5.55;1.90;;;13.70;99.90;;;;;;4977797;28;20051;-75
2023/06/30 02:22:07;;;;;;;4.15;2.40;;;13.60;99.90;;;;;;4977797;28;20042;-74
2023/06/30 02:24:33;;;;;;;4.50;1.92;;;13.60;99.90;;;;;;4977711;28;20515;-73
2023/06/30 02:26:59;;;;;;;5.25;2.10;;;13.50;99.90;;;;;;4977724;28;20046;-74
2023/06/30 02:29:25;;;;;;;3.65;1.90;;;13.50;99.90;;;;;;4976767;28;20050;-73
2023/06/30 02:31:50;;;;;;;3.67;1.90;;;13.40;99.90;;;;;;4977550;28;20182;-73
2023/06/30 02:34:16;;;;;;;6.20;2.10;;;13.30;99.90;;;;;;4977535;28;20487;-73
2023/06/30 02:36:42;;;;;;;5.20;2.08;;;13.30;99.90;;;;;;4977871;28;20129;-73
2023/06/30 02:39:07;;;;;;;6.70;2.20;;;13.20;99.90;;;;;;4978040;28;20481;-73
2023/06/30 02:41:33;;;;;;;6.20;2.03;;;13.10;99.90;;;;;;4976647;28;20101;-74
2023/06/30 02:43:59;;;;;;;4.15;2.28;;;13.00;99.90;;;;;;4977942;28;20047;-75
2023/06/30 02:46:24;;;;;;;3.38;1.70;;;13.00;99.90;;;;;;4977935;28;20047;-75
2023/06/30 02:48:50;;;;;;;3.97;2.15;;;13.00;99.90;;;;;;4977922;28;20059;-74
2023/06/30 02:51:16;;;;;;;3.53;1.80;;;12.90;99.90;;;;;;4977257;28;20046;-75
2023/06/30 02:53:41;;;;;;;5.45;2.13;;;12.90;99.90;;;;;;4977034;28;20051;-74
2023/06/30 02:56:07;;;;;;;4.20;1.92;;;12.80;99.90;;;;;;4977154;28;20058;-75
2023/06/30 02:58:36;;;;;;;5.22;2.10;;;12.80;99.90;;;;;;4976742;28;20050;-74
2023/06/30 03:01:05;;;;;;;3.45;2.10;;;12.70;99.90;;;;;;4977131;28;20042;-75
2023/06/30 03:03:31;;;;;;;3.67;1.92;;;12.70;99.90;;;;;;4977088;28;20054;-75
2023/06/30 03:05:57;;;;;;;4.57;2.00;;;12.60;99.90;;;;;;4977022;28;20137;-76
2023/06/30 03:08:22;;;;;;;3.25;1.85;;;12.60;99.90;;;;;;4977031;28;20134;-74
2023/06/30 03:10:49;;;;;;;5.18;2.50;;;12.60;99.90;;;;;;4976906;28;20093;-75
2023/06/30 03:13:14;;;;;;;2.80;1.52;;;12.50;99.90;;;;;;4976898;28;20051;-75
2023/06/30 03:15:40;;;;;;;2.88;2.20;;;12.50;99.90;;;;;;4977527;28;20057;-75
2023/06/30 03:18:06;;;;;;;5.38;2.00;;;12.50;99.90;;;;;;4977264;28;20096;-75
2023/06/30 03:20:31;;;;;;;4.97;1.90;;;12.40;99.90;;;;;;4976313;28;20046;-75
2023/06/30 03:22:57;;;;;;;3.15;1.90;;;12.40;99.90;;;;;;4974865;28;20051;-74
2023/06/30 03:25:23;;;;;;;4.30;1.90;;;12.30;99.90;;;;;;4975316;28;20112;-74
2023/06/30 03:27:48;;;;;;;4.13;2.17;;;12.20;99.90;;;;;;4976399;28;20074;-74
2023/06/30 03:30:16;;;;;;;5.60;2.20;;;12.10;99.90;;;;;;4976158;28;20046;-75
2023/06/30 03:32:41;;;;;;;4.63;2.15;;;12.10;99.90;;;;;;4976345;28;20418;-74
2023/06/30 03:35:07;;;;;;;5.05;2.65;;;12.10;99.90;;;;;;4976356;28;20058;-74
2023/06/30 03:37:33;;;;;;;6.72;2.13;;;12.00;99.90;;;;;;4975550;28;20055;-73
2023/06/30 03:40:05;;;;;;;4.53;2.03;;;12.00;99.90;;;;;;4976870;28;20467;-74
2023/06/30 03:42:31;;;;;;;5.40;2.42;;;12.00;99.90;;;;;;4976630;28;20485;-75
2023/06/30 03:44:57;;;;;;;6.82;2.20;;;12.00;99.90;;;;;;4976357;28;20185;-74
2023/06/30 03:47:22;;;;;;;4.15;2.15;;;12.00;99.90;;;;;;4976309;28;20061;-73
2023/06/30 03:49:48;;;;;;;4.25;2.05;;;12.00;99.90;;;;;;4976242;28;20053;-74
2023/06/30 03:52:14;;;;;;;4.18;2.00;;;12.00;99.90;;;;;;4976150;28;20049;-73
2023/06/30 03:54:39;;;;;;;3.03;1.90;;;12.00;99.90;;;;;;4976217;28;20039;-75
2023/06/30 03:57:05;;;;;;;4.05;1.90;;;12.00;99.90;;;;;;4976107;28;20051;-75
2023/06/30 03:59:31;;;;;;;4.85;1.90;;;12.00;99.90;;;;;;4976791;28;20050;-74
2023/06/30 04:01:56;;;;;;;4.28;2.25;;;12.00;99.90;;;;;;4975965;28;20523;-75
2023/06/30 04:04:22;;;;;;;4.28;2.20;;;12.00;99.90;;;;;;4976431;28;20050;-75
2023/06/30 04:06:48;;;;;;;4.15;2.05;;;12.00;99.90;;;;;;4975918;28;20086;-73
2023/06/30 04:09:13;;;;;;;4.85;2.03;;;12.00;99.90;;;;;;4975889;28;20051;-74
2023/06/30 04:11:39;;;;;;;4.60;2.00;;;12.00;99.90;;;;;;4975299;28;20047;-75
2023/06/30 04:14:05;;;;;;;6.18;2.20;;;12.00;99.90;;;;;;4975771;28;20053;-75
2023/06/30 04:16:31;;;;;;;2.72;1.73;;;12.00;99.90;;;;;;4974660;28;20497;-74
2023/06/30 04:18:56;;;;;;;5.78;2.17;;;12.00;99.90;;;;;;4974504;28;20055;-75
2023/06/30 04:21:22;;;;;;;3.72;2.08;;;12.10;99.90;;;;;;4975630;28;20046;-74
2023/06/30 04:23:48;;;;;;;3.20;2.03;;;12.00;99.90;;;;;;4975899;28;20105;-75
2023/06/30 04:26:17;;;;;;;6.15;2.40;;;12.10;99.90;;;;;;4975512;28;20495;-76
2023/06/30 04:28:43;;;;;;;5.68;2.40;;;12.10;99.90;;;;;;4975393;28;20055;-75
2023/06/30 04:31:09;;;;;;;6.57;2.80;;;12.10;99.90;;;;;;4975124;28;20063;-75
2023/06/30 04:33:35;;;;;;;3.47;2.22;;;12.10;99.90;;;;;;4975342;28;20061;-74
2023/06/30 04:36:01;;;;;;;6.35;2.38;;;12.10;99.90;;;;;;4975394;28;20047;-74
2023/06/30 04:38:27;;;;;;;6.35;2.40;;;12.10;99.90;;;;;;4975162;28;20086;-75
2023/06/30 04:40:53;;;;;;;8.43;2.60;;;12.20;99.90;;;;;;4975597;28;20050;-75
2023/06/30 04:43:19;;;;;;;3.10;2.30;;;12.20;99.90;;;;;;4975814;28;20051;-74
2023/06/30 04:45:45;;;;;;;6.80;2.30;;;12.20;99.90;;;;;;4975283;28;20514;-74
2023/06/30 04:48:11;;;;;;;7.43;2.40;;;12.30;99.90;;;;;;4975175;28;20097;-75
2023/06/30 04:50:36;;;;;;;4.22;2.60;;;12.30;99.90;;;;;;4975614;28;20396;-73
2023/06/30 04:53:02;;;;;;;5.53;2.40;;;12.40;99.90;;;;;;4974856;28;20046;-75
2023/06/30 04:55:28;;;;;;;5.05;2.20;;;12.40;99.90;;;;;;4975635;28;20058;-74
2023/06/30 04:57:55;;;;;;;6.03;2.50;;;12.50;99.90;;;;;;4975022;28;20049;-75
2023/06/30 05:00:21;;;;;;;4.15;2.22;;;12.50;99.90;;;;;;4975093;28;20051;-75
2023/06/30 05:02:48;;;;;;;5.00;2.05;;;12.60;99.90;;;;;;4975014;28;20438;-73
2023/06/30 05:05:14;;;;;;;4.95;2.30;;;12.60;99.90;;;;;;4973875;28;20055;-75
2023/06/30 05:07:40;;;;;;;6.93;2.10;;;12.70;99.90;;;;;;4973982;28;20134;-74
2023/06/30 05:10:06;;;;;;;3.42;2.15;;;12.70;99.90;;;;;;4975483;28;20389;-74
2023/06/30 05:12:31;;;;;;;4.18;2.05;;;12.90;99.90;;;;;;4975030;28;20093;-74
2023/06/30 05:14:57;;;;;;;3.85;2.10;;;12.90;99.90;;;;;;4974806;28;20054;-75
2023/06/30 05:17:23;;;;;;;4.65;1.98;;;13.00;99.90;;;;;;4974855;28;20085;-74
2023/06/30 05:19:48;;;;;;;4.43;2.20;;;13.10;99.90;;;;;;4974746;28;20050;-74
2023/06/30 05:22:14;;;;;;;3.95;2.08;;;13.20;99.90;;;;;;4973703;28;20057;-73
2023/06/30 05:24:40;;;;;;;3.05;2.15;;;13.20;99.90;;;;;;4974829;28;20094;-75
2023/06/30 05:27:06;;;;;;;3.20;1.90;;;13.30;99.90;;;;;;4974814;28;20090;-74
2023/06/30 05:29:32;;;;;;;4.65;1.90;;;13.40;99.90;;;;;;4974719;28;20519;-74
2023/06/30 05:31:58;;;;;;;6.20;2.30;;;13.50;99.90;;;;;;4973292;28;20057;-73
2023/06/30 05:34:23;;;;;;;6.35;2.20;;;13.70;99.90;;;;;;4974586;28;20051;-73
2023/06/30 05:36:49;;;;;;;5.45;1.70;;;13.80;99.90;;;;;;4974620;28;20046;-75
2023/06/30 05:39:15;;;;;;;5.72;2.17;;;13.90;99.90;;;;;;4973753;28;20047;-74
2023/06/30 05:41:41;;;;;;;5.13;2.00;;;14.10;99.90;;;;;;4975231;28;20456;-76
2023/06/30 05:44:07;;;;;;;3.63;2.08;;;14.10;99.90;;;;;;4974537;28;20400;-74
2023/06/30 05:46:39;;;;;;;3.35;1.98;;;14.30;99.90;;;;;;4975408;28;20101;-75
2023/06/30 05:49:05;;;;;;;3.40;2.53;;;14.40;99.90;;;;;;4974517;28;20043;-74
2023/06/30 05:51:35;;;;;;;5.13;2.10;;;14.50;99.90;;;;;;4974409;28;20101;-74
2023/06/30 05:54:01;;;;;;;5.78;1.98;;;14.50;99.90;;;;;;4974484;28;20210;-75
2023/06/30 05:56:28;;;;;;;4.72;1.98;;;14.70;99.90;;;;;;4974461;28;20055;-74
2023/06/30 05:58:53;;;;;;;5.43;2.60;;;14.70;99.90;;;;;;4974311;28;20099;-74
2023/06/30 06:01:20;;;;;;;7.38;2.28;;;14.80;99.90;;;;;;4974741;28;20502;-74
2023/06/30 06:03:46;;;;;;;4.03;2.45;;;14.90;99.90;;;;;;4974390;28;20051;-75
2023/06/30 06:06:12;;;;;;;3.97;2.00;;;15.10;99.90;;;;;;4973281;28;20153;-75
2023/06/30 06:08:40;;;;;;;3.13;1.60;;;15.20;99.90;;;;;;4974369;28;20086;-74
2023/06/30 06:11:05;;;;;;;4.50;2.08;;;15.30;99.90;;;;;;4974294;28;20049;-76
2023/06/30 06:13:38;;;;;;;5.47;1.90;;;15.40;99.90;;;;;;4975084;28;20046;-65
2023/06/30 06:16:05;;;;;;;3.40;1.70;;;15.60;99.90;;;;;;4974906;28;20213;-66
2023/06/30 06:18:31;;;;;;;3.35;1.63;;;15.60;99.90;;;;;;4974302;28;20050;-66
2023/06/30 06:20:58;;;;;;;4.43;1.77;;;15.70;99.90;;;;;;4974162;28;20105;-66
2023/06/30 06:23:24;;;;;;;4.43;2.10;;;15.80;99.90;;;;;;4974244;28;20050;-65
2023/06/30 06:25:50;;;;;;;4.75;1.52;;;15.90;99.90;;;;;;4974496;28;20077;-66
2023/06/30 06:28:16;;;;;;;4.55;1.90;;;16.00;99.90;;;;;;4974290;28;20422;-65
2023/06/30 06:30:42;;;;;;;4.47;1.50;;;16.10;99.90;;;;;;4973949;28;20105;-65
2023/06/30 06:33:08;;;;;;;4.07;1.50;;;16.20;99.90;;;;;;4974078;28;20043;-67
2023/06/30 06:35:34;;;;;;;3.15;1.60;;;16.30;99.90;;;;;;4977053;28;20395;-65
2023/06/30 06:38:00;;;;;;;4.20;1.50;;;16.40;99.90;;;;;;4977607;28;20053;-65
2023/06/30 06:40:28;;;;;;;5.13;1.80;;;16.50;99.90;;;;;;4978257;28;20369;-65
2023/06/30 06:42:55;;;;;;;3.33;1.52;;;16.50;99.90;;;;;;4977444;28;20043;-65
2023/06/30 06:45:21;;;;;;;3.92;1.35;;;16.50;99.90;;;;;;4977494;28;20533;-66
2023/06/30 06:48:15;;;;;;;3.60;1.40;;;16.50;99.90;;;;;;4977403;28;20105;-65
2023/06/30 06:50:41;;;;;;;3.97;1.27;;;16.50;99.90;;;;;;4977237;28;20047;-66
2023/06/30 06:53:07;;;;;;;5.07;1.80;;;16.60;99.90;;;;;;4978101;28;20050;-66
2023/06/30 06:55:33;;;;;;;3.03;1.48;;;16.80;99.90;;;;;;4976339;28;20051;-65
2023/06/30 06:57:59;;;;;;;5.07;1.60;;;17.00;99.90;;;;;;4977217;28;20051;-66
2023/06/30 07:00:24;;;;;;;4.82;1.55;;;17.10;99.90;;;;;;4975982;28;20047;-66
2023/06/30 07:02:51;;;;;;;2.95;1.25;;;17.20;99.90;;;;;;4976726;28;20081;-66
2023/06/30 07:05:17;;;;;;;3.17;1.40;;;17.30;99.90;;;;;;4977027;28;20134;-66
2023/06/30 07:07:43;;;;;;;6.05;1.60;;;17.40;99.90;;;;;;4977826;28;20074;-65
2023/06/30 07:10:09;;;;;;;4.10;1.40;;;17.40;99.90;;;;;;4977008;28;20547;-66
2023/06/30 07:12:35;;;;;;;5.30;1.35;;;17.40;99.90;;;;;;4976262;28;20054;-66
2023/06/30 07:15:01;;;;;;;3.75;1.25;;;17.50;99.90;;;;;;4977383;28;20046;-66
2023/06/30 07:17:26;;;;;;;2.17;1.17;;;17.50;99.90;;;;;;4976568;28;20051;-66
2023/06/30 07:19:52;;;;;;;2.50;1.05;;;17.60;99.90;;;;;;4977186;28;20377;-66
2023/06/30 07:22:18;;;;;;;3.75;1.15;;;17.70;99.90;;;;;;4976759;28;20038;-67
2023/06/30 07:24:43;;;;;;;2.88;1.05;;;17.70;99.90;;;;;;4977200;28;20411;-68
2023/06/30 07:27:09;;;;;;;3.35;1.40;;;17.70;99.90;;;;;;4976542;28;20094;-65
2023/06/30 07:29:35;;;;;;;2.85;1.15;;;17.90;99.90;;;;;;4976813;28;20050;-65
2023/06/30 07:32:00;;;;;;;3.15;1.20;;;18.00;99.90;;;;;;4976466;28;20046;-66
2023/06/30 07:34:29;;;;;;;5.13;1.30;;;18.10;99.90;;;;;;4976345;28;20457;-65
2023/06/30 07:36:54;;;;;;;2.30;0.98;;;18.20;99.90;;;;;;4976448;28;20106;-66
2023/06/30 07:39:20;;;;;;;2.92;1.13;;;18.30;99.90;;;;;;4976391;28;20082;-65
2023/06/30 07:41:45;;;;;;;4.38;1.23;;;18.20;99.90;;;;;;4977141;28;20042;-65
2023/06/30 07:44:11;;;;;;;2.78;1.10;;;18.10;99.90;;;;;;4975955;28;20050;-65
2023/06/30 07:46:38;;;;;;;2.88;1.13;;;18.00;99.90;;;;;;4975707;28;20089;-65
2023/06/30 07:49:04;;;;;;;3.08;1.25;;;18.00;99.90;;;;;;4976517;28;20047;-64
2023/06/30 07:51:30;;;;;;;3.50;0.90;;;18.00;99.90;;;;;;4976179;28;20039;-65
2023/06/30 07:53:56;;;;;;;2.80;0.88;;;18.00;99.90;;;;;;4976096;28;20053;-65
2023/06/30 07:56:22;;;;;;;5.78;1.25;;;18.00;99.90;;;;;;4976048;28;20057;-65
2023/06/30 07:58:48;;;;;;;3.55;1.05;;;17.90;99.90;;;;;;4976060;28;20443;-65
2023/06/30 08:01:14;;;;;;;3.90;1.20;;;18.00;99.90;;;;;;4976037;28;20042;-65
2023/06/30 08:03:40;;;;;;;3.05;1.17;;;18.10;99.90;;;;;;4975886;28;20149;-65
2023/06/30 08:06:06;;;;;;;4.05;1.15;;;18.20;99.90;;;;;;4974888;28;20113;-65
2023/06/30 08:08:32;;;;;;;3.15;1.00;;;18.30;99.90;;;;;;4975851;28;20050;-64
2023/06/30 08:10:58;;;;;;;3.55;0.98;;;18.30;99.90;;;;;;4975801;28;20360;-64
2023/06/30 08:13:25;;;;;;;1.77;0.90;;;18.20;99.90;;;;;;4976043;28;20043;-64
2023/06/30 08:15:51;;;;;;;2.35;0.80;;;18.20;99.90;;;;;;4976349;28;20089;-63
2023/06/30 08:18:17;;;;;;;2.15;1.13;;;18.40;99.90;;;;;;4975732;28;20081;-64
2023/06/30 08:20:42;;;;;;;1.65;0.80;;;18.60;99.90;;;;;;4975614;28;20460;-63
2023/06/30 08:23:10;;;;;;;2.92;1.00;;;18.80;99.90;;;;;;4975635;28;20042;-64
2023/06/30 08:25:36;;;;;;;2.20;0.90;;;18.90;99.90;;;;;;4975403;28;20109;-64
2023/06/30 08:28:02;;;;;;;1.83;0.70;;;18.80;99.90;;;;;;4975573;28;20043;-64
2023/06/30 08:30:27;;;;;;;2.13;0.85;;;18.70;99.90;;;;;;4975538;28;20479;-64
2023/06/30 08:32:54;;;;;;;3.50;0.90;;;18.50;99.90;;;;;;4973919;28;20051;-63
2023/06/30 08:35:20;;;;;;;6.97;1.13;;;18.60;99.90;;;;;;4975317;28;20054;-64
2023/06/30 08:37:46;;;;;;;3.25;1.00;;;18.90;99.90;;;;;;4974469;28;20182;-64
2023/06/30 08:40:12;;;;;;;3.45;0.90;;;19.10;99.90;;;;;;4975635;28;20105;-65
2023/06/30 08:42:43;;;;;;;3.38;1.02;;;19.40;99.90;;;;;;4975383;28;20436;-64
2023/06/30 08:45:10;;;;;;;2.25;0.95;;;19.50;99.90;;;;;;4975034;28;20086;-63
2023/06/30 08:47:37;;;;;;;3.80;1.00;;;19.50;99.90;;;;;;4974744;28;20121;-64
2023/06/30 08:50:04;;;;;;;3.78;1.02;;;19.30;99.90;;;;;;4974794;28;20082;-63
2023/06/30 08:52:30;;;;;;;1.90;0.80;;;19.10;99.90;;;;;;4974909;28;20039;-63
2023/06/30 08:54:55;;;;;;;2.50;1.00;;;19.10;99.90;;;;;;4973898;28;20046;-64
2023/06/30 08:57:21;;;;;;;2.10;0.90;;;19.40;99.90;;;;;;4974389;28;20368;-64
2023/06/30 08:59:47;;;;;;;2.67;1.00;;;19.60;99.90;;;;;;4975072;28;20403;-63
2023/06/30 09:02:13;;;;;;;2.38;0.88;;;19.50;99.90;;;;;;4974803;28;20051;-64
2023/06/30 09:04:40;;;;;;;1.52;0.90;;;19.20;99.90;;;;;;4974393;28;20134;-64
2023/06/30 09:07:15;;;;;;;3.72;0.90;;;19.00;99.90;;;;;;4974883;28;20058;-63
2023/06/30 09:09:45;;;;;;;2.13;0.88;;;19.20;99.90;;;;;;4975364;28;20399;-63
2023/06/30 09:12:12;;;;;;;3.20;0.93;;;19.50;99.90;;;;;;4975563;28;20074;-64
2023/06/30 09:14:40;;;;;;;2.38;0.82;;;19.70;99.90;;;;;;4974745;28;20054;-64
2023/06/30 09:17:06;;;;;;;1.80;0.82;;;19.80;99.90;;;;;;4973832;28;20046;-63
2023/06/30 09:19:32;;;;;;;4.55;1.02;;;20.00;99.90;;;;;;4974545;28;20058;-64
2023/06/30 09:21:58;;;;;;;2.10;1.00;;;20.30;99.90;;;;;;4974556;28;20047;-63
2023/06/30 09:24:25;;;;;;;3.78;0.90;;;20.30;99.90;;;;;;4975211;28;20476;-64
2023/06/30 09:26:52;;;;;;;2.15;0.70;;;20.00;99.90;;;;;;4974710;28;20141;-64
2023/06/30 09:29:22;;;;;;;1.70;0.80;;;19.90;99.90;;;;;;4974470;28;20050;-64
2023/06/30 09:31:51;;;;;;;1.35;0.75;;;19.80;99.90;;;;;;4973079;28;20562;-64
2023/06/30 09:34:21;;;;;;;2.47;0.80;;;20.10;99.90;;;;;;4974844;28;20392;-64
2023/06/30 09:36:51;;;;;;;2.88;1.13;;;20.20;99.90;;;;;;4974210;28;20057;-64
2023/06/30 09:39:18;;;;;;;2.15;0.80;;;20.30;99.90;;;;;;4974421;28;20269;-64
2023/06/30 09:41:45;;;;;;;1.85;1.00;;;20.40;99.90;;;;;;4975313;28;20496;-64
2023/06/30 09:44:11;;;;;;;1.73;0.85;;;20.60;99.90;;;;;;4974906;28;20054;-64
2023/06/30 09:46:48;;;;;;;3.22;0.70;;;20.70;99.90;;;;;;4975199;28;20050;-63
2023/06/30 09:49:28;;;;;;;2.95;0.80;;;20.90;99.90;;;;;;4974263;28;20152;-63
2023/06/30 09:51:56;;;;;;;1.30;0.70;;;21.10;99.90;;;;;;4974489;28;20043;-63
2023/06/30 09:54:23;;;;;;;3.05;0.95;;;21.20;99.90;;;;;;4974760;28;20053;-63
2023/06/30 09:56:59;;;;;;;3.35;0.90;;;21.30;99.90;;;;;;4974366;28;20046;-64
2023/06/30 09:59:25;;;;;;;1.95;0.90;;;21.20;99.90;;;;;;4974768;28;20058;-64
2023/06/30 10:01:58;;;;;;;3.70;1.27;;;21.00;99.90;;;;;;4974338;28;20476;-64
2023/06/30 10:04:25;;;;;;;2.22;0.80;;;20.70;99.90;;;;;;4974798;28;20058;-64
2023/06/30 10:06:54;;;;;;;2.50;0.70;;;20.40;99.90;;;;;;4974082;28;20571;-64
2023/06/30 10:09:21;;;;;;;1.48;0.70;;;20.20;99.90;;;;;;4976195;28;20113;-63
2023/06/30 10:11:52;;;;;;;3.50;0.90;;;20.10;99.90;;;;;;4977924;28;20058;-64
2023/06/30 10:14:26;;;;;;;1.67;0.60;;;20.40;99.90;;;;;;4978286;28;20179;-64
2023/06/30 10:16:53;;;;;;;3.00;0.80;;;20.80;99.90;;;;;;4977950;28;20069;-64
2023/06/30 10:19:19;;;;;;;2.28;0.80;;;21.20;99.90;;;;;;4978425;28;20042;-64
2023/06/30 10:21:45;;;;;;;2.42;0.80;;;21.50;99.90;;;;;;4977773;28;20480;-64
2023/06/30 10:24:11;;;;;;;1.77;0.88;;;21.90;99.90;;;;;;4976702;28;20133;-64
2023/06/30 10:26:38;;;;;;;1.83;0.65;;;22.20;99.90;;;;;;4977428;28;20504;-63
2023/06/30 10:29:04;;;;;;;1.88;0.68;;;22.40;99.90;;;;;;4960840;28;20047;-64
2023/06/30 10:31:32;;;;;;;4.00;0.60;;;22.50;99.90;;;;;;4977518;28;20062;-64
2023/06/30 10:33:58;;;;;;;3.72;1.00;;;22.60;99.90;;;;;;4977473;28;20480;-63
2023/06/30 10:36:25;;;;;;;1.85;0.75;;;22.30;99.90;;;;;;4977663;28;20058;-64
2023/06/30 10:38:51;;;;;;;1.27;0.68;;;22.00;99.90;;;;;;4977594;28;20451;-64
2023/06/30 10:41:19;;;;;;;1.17;0.70;;;21.90;99.90;;;;;;4977534;28;20134;-64
2023/06/30 10:44:03;;;;;;;1.63;0.50;;;22.00;99.90;;;;;;4977475;28;20047;-64
2023/06/30 10:46:47;;;;;;;2.35;0.68;;;22.10;99.90;;;;;;4977378;28;20507;-65
2023/06/30 10:49:23;;;;;;;1.55;0.68;;;22.20;99.90;;;;;;4977618;28;20144;-64
2023/06/30 10:51:50;;;;;;;;;;;22.50;99.90;;;;;;4978301;28;20096;-63
2023/06/30 10:54:22;;;;;;;2.90;0.75;;;22.50;99.90;;;;;;4977256;28;19929;-64
2023/06/30 10:57:02;;;;;;;2.25;0.93;;;22.60;99.90;;;;;;4976153;28;20059;-65
2023/06/30 10:59:44;;;;;;;2.22;0.90;;;22.60;99.90;;;;;;4977220;28;20049;-64
2023/06/30 11:02:19;;;;;;;2.08;0.70;;;22.30;99.90;;;;;;4977398;28;20058;-64
2023/06/30 11:04:49;;;;;;;2.13;0.80;;;22.10;99.90;;;;;;4976940;28;20054;-65
2023/06/30 11:07:24;;;;;;;2.22;0.93;;;22.30;99.90;;;;;;4977027;28;20051;-65
2023/06/30 11:09:49;;;;;;;2.15;0.70;;;22.40;99.90;;;;;;4977464;28;20058;-65
2023/06/30 11:12:19;;;;;;;2.10;0.90;;;22.30;99.90;;;;;;4976893;28;20129;-65
2023/06/30 11:14:59;;;;;;;2.33;0.80;;;22.10;99.90;;;;;;4976585;28;20531;-65
2023/06/30 11:17:48;;;;;;;2.53;0.90;;;21.90;99.90;;;;;;4977661;28;20129;-64
2023/06/30 11:20:14;;;;;;;2.35;0.80;;;21.70;99.90;;;;;;4976335;28;20496;-64
2023/06/30 11:22:40;;;;;;;3.15;0.85;;;21.40;99.90;;;;;;4977313;28;20046;-63
2023/06/30 11:25:13;;;;;;;1.60;0.90;;;21.40;99.90;;;;;;4976468;28;20518;-64
2023/06/30 11:27:39;;;;;;;3.15;0.90;;;21.30;99.90;;;;;;4976530;28;20097;-64
2023/06/30 11:30:06;;;;;;;1.80;0.82;;;21.50;99.90;;;;;;4976550;28;20046;-64
2023/06/30 11:32:35;;;;;;;3.17;0.80;;;21.90;99.90;;;;;;4976525;28;20067;-63
2023/06/30 11:35:05;;;;;;;2.80;1.00;;;22.10;99.90;;;;;;4976071;28;20522;-63
2023/06/30 11:37:36;;;;;;;1.42;0.80;;;22.40;99.90;;;;;;4976647;28;20066;-64
2023/06/30 11:40:03;;;;;;;1.65;0.70;;;22.80;99.90;;;;;;4976760;28;20047;-64
2023/06/30 11:42:28;;;;;;;1.52;0.70;;;23.10;99.90;;;;;;4976921;28;20350;-64
2023/06/30 11:44:54;;;;;;;1.73;0.80;;;22.80;99.90;;;;;;4976283;28;20133;-64
2023/06/30 11:47:21;;;;;;;2.25;1.00;;;22.50;99.90;;;;;;4977091;28;20050;-63
2023/06/30 11:49:47;;;;;;;1.50;0.80;;;22.00;99.90;;;;;;4976012;28;20480;-63
2023/06/30 11:52:18;;;;;;;1.95;0.80;;;21.60;99.90;;;;;;4975912;28;20126;-64
2023/06/30 11:54:44;;;;;;;1.55;0.80;;;21.40;99.90;;;;;;4976026;28;20427;-63
2023/06/30 11:57:10;;;;;;;2.15;0.82;;;21.40;99.90;;;;;;4976046;28;20043;-63
2023/06/30 11:59:37;;;;;;;2.50;1.10;;;21.40;99.90;;;;;;4975941;28;20105;-63
2023/06/30 12:02:03;;;;;;;2.97;0.70;;;21.40;99.90;;;;;;4976046;28;20061;-63
2023/06/30 12:04:34;;;;;;;2.72;0.95;;;21.70;99.90;;;;;;4976424;28;20129;-63
2023/06/30 12:07:05;;;;;;;1.90;0.70;;;22.20;99.90;;;;;;4975944;28;20065;-63
2023/06/30 12:09:33;;;;;;;2.53;0.95;;;22.50;99.90;;;;;;4975578;28;20495;-64
2023/06/30 12:12:00;;;;;;;4.00;0.90;;;22.60;99.90;;;;;;4975559;28;20038;-64
2023/06/30 12:14:26;;;;;;;3.35;0.80;;;22.90;99.90;;;;;;4974783;28;20047;-64
2023/06/30 12:16:53;;;;;;;3.63;0.98;;;23.00;99.90;;;;;;4974286;28;20408;-64
2023/06/30 12:19:26;;;;;;;2.03;1.00;;;22.80;99.90;;;;;;4976032;28;20431;-65
2023/06/30 12:21:59;;;;;;;3.42;1.63;;;22.70;99.90;;;;;;4975896;28;20062;-65
2023/06/30 12:24:29;;;;;;;2.30;0.80;;;22.80;99.90;;;;;;4975585;28;20074;-64
2023/06/30 12:26:55;;;;;;;2.63;1.13;;;23.10;99.90;;;;;;4976235;28;20047;-65
2023/06/30 12:29:20;;;;;;;2.00;1.10;;;23.40;99.90;;;;;;4975335;28;20177;-65
2023/06/30 12:31:47;;;;;;;2.42;0.88;;;23.60;99.90;;;;;;4974526;28;20043;-64
2023/06/30 12:34:29;;;;;;;2.33;1.02;;;23.80;99.90;;;;;;4975380;28;20161;-65
2023/06/30 12:36:55;;;;;;;3.10;1.05;;;23.90;99.90;;;;;;4975281;28;20046;-65
2023/06/30 12:39:21;;;;;;;3.42;0.88;;;23.70;99.90;;;;;;4975022;28;20053;-65
2023/06/30 12:41:46;;;;;;;2.58;0.90;;;23.50;99.90;;;;;;4975953;28;20388;-64
2023/06/30 12:44:12;;;;;;;2.75;0.80;;;23.30;99.90;;;;;;4975134;28;20097;-64
2023/06/30 12:46:38;;;;;;;1.45;0.70;;;23.10;99.90;;;;;;4975089;28;20050;-64
2023/06/30 12:49:05;;;;;;;2.30;1.00;;;22.80;99.90;;;;;;4975023;28;20483;-64